createdAt,value
2023-05-11T00:02:16.689Z,91.30
2023-05-11T00:04:44.744Z,91.20
2023-05-11T00:07:19.660Z,91.10
2023-05-11T00:09:51.670Z,90.90
2023-05-11T00:12:21.251Z,91.10
2023-05-11T00:14:55.197Z,91.40
2023-05-11T00:17:30.865Z,91.20
2023-05-11T00:20:01.562Z,91.30
2023-05-11T00:22:37.970Z,91.20
2023-05-11T00:25:08.634Z,91.00
2023-05-11T00:27:45.244Z,91.00
2023-05-11T00:30:17.016Z,91.30
2023-05-11T00:32:50.256Z,91.20
2023-05-11T00:35:25.282Z,91.10
2023-05-11T00:38:00.314Z,91.10
2023-05-11T00:40:36.942Z,91.20
2023-05-11T00:43:04.641Z,91.20
2023-05-11T00:45:36.482Z,91.10
2023-05-11T00:48:11.873Z,91.00
2023-05-11T00:50:47.718Z,91.00
2023-05-11T00:53:16.193Z,91.00
2023-05-11T00:55:47.997Z,91.00
2023-05-11T00:58:22.730Z,91.10
2023-05-11T01:00:51.839Z,90.90
2023-05-11T01:03:29.954Z,91.30
2023-05-11T01:06:49.421Z,91.10
2023-05-11T01:10:20.306Z,91.00
2023-05-11T01:13:10.142Z,91.20
2023-05-11T01:15:51.759Z,91.70
2023-05-11T01:18:48.870Z,91.40
2023-05-11T01:21:18.126Z,91.30
2023-05-11T01:24:29.876Z,91.30
2023-05-11T01:27:44.336Z,91.30
2023-05-11T01:30:57.814Z,91.40
2023-05-11T01:33:34.109Z,91.60
2023-05-11T01:36:10.451Z,91.60
2023-05-11T01:38:48.364Z,91.60
2023-05-11T01:41:30.916Z,91.70
2023-05-11T01:44:19.784Z,91.90
2023-05-11T01:46:55.532Z,91.90
2023-05-11T01:49:28.866Z,92.10
2023-05-11T01:52:01.802Z,92.20
2023-05-11T01:54:45.184Z,92.50
2023-05-11T01:57:26.939Z,92.60
2023-05-11T01:59:59.850Z,92.70
2023-05-11T02:02:29.526Z,92.60
2023-05-11T02:05:04.671Z,92.60
2023-05-11T02:07:36.385Z,92.60
2023-05-11T02:10:10.770Z,92.80
2023-05-11T02:12:43.238Z,92.90
2023-05-11T02:15:13.886Z,92.90
2023-05-11T02:17:47.946Z,93.00
2023-05-11T02:20:25.673Z,93.00
2023-05-11T02:23:00.743Z,93.00
2023-05-11T02:25:40.238Z,92.90
2023-05-11T02:28:13.069Z,93.30
2023-05-11T02:30:50.253Z,93.40
2023-05-11T02:33:29.829Z,93.60
2023-05-11T02:36:04.084Z,93.50
2023-05-11T02:38:36.898Z,93.50
2023-05-11T02:41:16.942Z,93.90
2023-05-11T02:43:53.386Z,94.00
2023-05-11T02:46:24.126Z,93.80
2023-05-11T02:48:57.891Z,93.90
2023-05-11T02:51:41.342Z,94.00
2023-05-11T02:54:10.969Z,94.20
2023-05-11T02:56:48.232Z,94.10
2023-05-11T02:59:23.069Z,94.30
2023-05-11T03:01:56.293Z,94.50
2023-05-11T03:04:26.001Z,94.50
2023-05-11T03:06:55.772Z,94.80
2023-05-11T03:09:26.513Z,94.90
2023-05-11T03:12:09.621Z,94.90
2023-05-11T03:14:42.676Z,95.10
2023-05-11T03:17:17.235Z,94.90
2023-05-11T03:19:50.962Z,95.20
2023-05-11T03:22:27.463Z,95.30
2023-05-11T03:24:58.154Z,95.30
2023-05-11T03:27:27.651Z,95.40
2023-05-11T03:29:59.127Z,95.30
2023-05-11T03:32:38.721Z,95.30
2023-05-11T03:35:18.721Z,95.40
2023-05-11T03:37:55.654Z,95.50
2023-05-11T03:40:31.659Z,95.60
2023-05-11T03:43:04.129Z,95.80
2023-05-11T03:45:37.724Z,95.70
2023-05-11T03:48:13.402Z,95.90
2023-05-11T03:50:45.546Z,96.00
2023-05-11T03:53:21.384Z,96.20
2023-05-11T03:55:59.150Z,96.20
2023-05-11T03:58:32.020Z,96.30
2023-05-11T04:01:09.087Z,96.30
2023-05-11T04:03:55.899Z,96.50
2023-05-11T04:06:26.062Z,96.50
2023-05-11T04:09:15.960Z,96.60
2023-05-11T04:11:45.774Z,96.50
2023-05-11T04:14:18.706Z,96.60
2023-05-11T04:16:49.248Z,96.60
2023-05-11T04:19:29.092Z,96.70
2023-05-11T04:22:01.423Z,97.00
2023-05-11T04:24:40.926Z,97.00
2023-05-11T04:27:15.125Z,96.90
2023-05-11T04:29:46.234Z,97.10
2023-05-11T04:32:22.424Z,97.00
2023-05-11T04:35:09.759Z,97.20
2023-05-11T04:37:46.586Z,97.20
2023-05-11T04:40:20.810Z,97.10
2023-05-11T04:42:51.002Z,97.30
2023-05-11T04:45:25.969Z,97.10
2023-05-11T04:47:55.937Z,97.30
2023-05-11T04:50:34.263Z,97.00
2023-05-11T04:53:05.901Z,97.40
2023-05-11T04:55:40.008Z,97.40
2023-05-11T04:58:10.732Z,97.20
2023-05-11T05:00:43.080Z,97.20
2023-05-11T05:03:12.947Z,97.20
2023-05-11T05:05:44.061Z,97.40
2023-05-11T05:08:20.495Z,97.40
2023-05-11T05:10:51.522Z,97.10
2023-05-11T05:13:21.026Z,97.20
2023-05-11T05:15:56.712Z,97.50
2023-05-11T05:18:28.680Z,97.60
2023-05-11T05:21:01.451Z,97.50
2023-05-11T05:23:37.600Z,97.40
2023-05-11T05:26:08.845Z,97.50
2023-05-11T05:28:54.082Z,97.70
2023-05-11T05:31:28.081Z,97.60
2023-05-11T05:34:11.046Z,97.70
2023-05-11T05:36:45.439Z,97.50
2023-05-11T05:39:18.270Z,97.50
2023-05-11T05:41:49.081Z,97.50
2023-05-11T05:44:21.612Z,97.20
2023-05-11T05:46:56.484Z,97.30
2023-05-11T05:49:29.770Z,97.30
2023-05-11T05:52:04.211Z,97.10
2023-05-11T05:54:40.009Z,97.10
2023-05-11T05:57:10.004Z,97.00
2023-05-11T05:59:44.491Z,97.40
2023-05-11T06:02:28.261Z,97.10
2023-05-11T06:05:04.644Z,97.40
2023-05-11T06:07:36.360Z,96.90
2023-05-11T06:10:21.320Z,97.00
2023-05-11T06:12:54.756Z,97.20
2023-05-11T06:15:26.113Z,96.90
2023-05-11T06:18:03.328Z,96.60
2023-05-11T06:20:40.397Z,96.70
2023-05-11T06:23:19.232Z,96.80
2023-05-11T06:25:53.326Z,96.90
2023-05-11T06:28:31.115Z,96.10
2023-05-11T06:31:06.120Z,96.50
2023-05-11T06:33:42.262Z,96.20
2023-05-11T06:36:22.641Z,96.00
2023-05-11T06:38:52.058Z,96.20
2023-05-11T06:41:29.704Z,96.20
2023-05-11T06:44:01.834Z,96.00
2023-05-11T06:46:39.613Z,96.10
2023-05-11T06:49:14.895Z,96.00
2023-05-11T06:51:59.887Z,95.90
2023-05-11T06:54:31.880Z,95.80
2023-05-11T06:57:06.445Z,95.90
2023-05-11T06:59:37.046Z,96.10
2023-05-11T07:02:05.995Z,95.90
2023-05-11T07:04:38.522Z,95.70
2023-05-11T07:07:20.217Z,95.50
2023-05-11T07:09:53.875Z,95.20
2023-05-11T07:12:34.349Z,95.30
2023-05-11T07:15:14.778Z,95.10
2023-05-11T07:17:53.790Z,95.00
2023-05-11T07:20:35.580Z,94.70
2023-05-11T07:23:13.833Z,94.80
2023-05-11T07:25:49.805Z,94.60
2023-05-11T07:28:21.041Z,94.70
2023-05-11T07:30:51.615Z,94.40
2023-05-11T07:33:25.813Z,94.50
2023-05-11T07:35:56.240Z,94.40
2023-05-11T07:38:29.344Z,94.40
2023-05-11T07:41:06.854Z,94.20
2023-05-11T07:43:41.064Z,94.60
2023-05-11T07:46:08.900Z,94.50
2023-05-11T07:48:42.512Z,94.40
2023-05-11T07:51:12.898Z,94.50
2023-05-11T07:53:47.146Z,94.20
2023-05-11T07:56:21.862Z,94.20
2023-05-11T07:58:52.908Z,94.20
2023-05-11T08:01:31.298Z,94.10
2023-05-11T08:04:05.651Z,94.20
2023-05-11T08:06:43.927Z,94.20
2023-05-11T08:09:15.761Z,94.00
2023-05-11T08:11:46.152Z,93.80
2023-05-11T08:14:15.970Z,93.80
2023-05-11T08:16:47.465Z,93.80
2023-05-11T08:19:19.624Z,93.90
2023-05-11T08:21:50.860Z,94.00
2023-05-11T08:24:21.402Z,93.80
2023-05-11T08:27:00.756Z,93.70
2023-05-11T08:29:41.405Z,93.60
2023-05-11T08:32:10.606Z,93.60
2023-05-11T08:34:42.112Z,93.70
2023-05-11T08:37:13.278Z,93.70
2023-05-11T08:39:47.898Z,93.40
2023-05-11T08:42:19.499Z,93.60
2023-05-11T08:44:51.222Z,93.50
2023-05-11T08:47:23.557Z,93.70
2023-05-11T08:50:03.187Z,93.70
2023-05-11T08:52:35.965Z,94.00
2023-05-11T08:55:05.727Z,93.60
2023-05-11T08:57:37.900Z,93.30
2023-05-11T09:00:11.664Z,93.40
2023-05-11T09:02:48.749Z,93.30
2023-05-11T09:05:19.362Z,93.50
2023-05-11T09:07:53.792Z,93.30
2023-05-11T09:10:38.911Z,92.80
2023-05-11T09:13:14.819Z,93.20
2023-05-11T09:15:49.121Z,93.10
2023-05-11T09:18:19.526Z,93.30
2023-05-11T09:20:50.233Z,93.20
2023-05-11T09:23:32.798Z,93.20
2023-05-11T09:26:02.402Z,93.40
2023-05-11T09:28:36.527Z,93.50
2023-05-11T09:31:05.342Z,93.00
2023-05-11T09:33:42.417Z,92.90
2023-05-11T09:36:26.088Z,93.10
2023-05-11T09:39:02.054Z,93.00
2023-05-11T09:41:35.754Z,92.90
2023-05-11T09:44:23.350Z,93.30
2023-05-11T09:46:54.581Z,93.40
2023-05-11T09:49:36.756Z,93.60
2023-05-11T09:52:19.667Z,93.60
2023-05-11T09:54:52.042Z,93.70
2023-05-11T09:57:31.825Z,94.20
2023-05-11T10:00:17.203Z,94.80
2023-05-11T10:02:45.497Z,94.50
2023-05-11T10:05:18.970Z,94.40
2023-05-11T10:07:58.422Z,94.70
2023-05-11T10:10:36.354Z,94.60
2023-05-11T10:13:07.208Z,94.80
2023-05-11T10:15:37.932Z,95.00
2023-05-11T10:18:12.395Z,95.60
2023-05-11T10:20:45.484Z,95.20
2023-05-11T10:23:19.407Z,95.10
2023-05-11T10:25:52.647Z,94.70
2023-05-11T10:28:22.874Z,94.80
2023-05-11T10:30:53.482Z,94.70
2023-05-11T10:33:30.284Z,94.40
2023-05-11T10:35:59.688Z,94.20
2023-05-11T10:38:35.614Z,94.40
2023-05-11T10:44:50.240Z,94.30
2023-05-11T10:47:20.361Z,93.80
2023-05-11T10:50:06.246Z,93.80
2023-05-11T10:53:16.045Z,93.30
2023-05-11T10:56:11.440Z,93.60
2023-05-11T10:59:19.071Z,93.10
2023-05-11T11:02:02.627Z,93.10
2023-05-11T11:04:52.370Z,93.30
2023-05-11T11:07:24.360Z,93.70
2023-05-11T11:10:05.535Z,93.80
2023-05-11T11:12:48.033Z,94.30
2023-05-11T11:15:19.147Z,94.90
2023-05-11T11:18:17.981Z,95.10
2023-05-11T11:20:50.301Z,95.50
2023-05-11T11:23:46.811Z,96.20
2023-05-11T11:26:19.403Z,96.70
2023-05-11T11:29:02.082Z,96.70
2023-05-11T11:31:38.212Z,96.90
2023-05-11T11:34:39.924Z,96.80
2023-05-11T11:37:14.136Z,96.90
2023-05-11T11:39:47.918Z,97.00
2023-05-11T11:42:39.103Z,96.50
2023-05-11T11:45:36.902Z,96.80
2023-05-11T11:48:20.678Z,96.90
2023-05-11T11:51:30.373Z,97.40
2023-05-11T11:54:26.134Z,97.60
2023-05-11T11:57:04.387Z,97.40
2023-05-11T11:59:49.506Z,97.80
2023-05-11T12:02:23.550Z,97.90
2023-05-11T12:04:58.706Z,97.60
2023-05-11T12:07:38.984Z,98.60
2023-05-11T12:10:12.607Z,98.30
2023-05-11T12:12:51.915Z,99.00
2023-05-11T12:15:34.179Z,98.90
2023-05-11T12:18:07.980Z,99.00
2023-05-11T12:20:39.449Z,99.30
2023-05-11T12:23:17.534Z,99.90
2023-05-11T12:26:07.113Z,99.90
2023-05-11T12:28:39.000Z,99.90
2023-05-11T12:31:12.587Z,99.90
2023-05-11T12:33:54.669Z,99.90
2023-05-11T12:36:31.748Z,99.90
2023-05-11T12:39:02.559Z,99.90
2023-05-11T12:41:36.144Z,99.90
2023-05-11T12:44:06.343Z,99.90
2023-05-11T12:46:39.727Z,99.90
2023-05-11T12:49:24.760Z,99.90
2023-05-11T12:52:12.796Z,99.90
2023-05-11T12:54:52.922Z,99.90
2023-05-11T12:57:31.326Z,99.90
2023-05-11T13:00:16.942Z,99.90
2023-05-11T13:02:55.189Z,99.90
2023-05-11T13:05:32.082Z,99.90
2023-05-11T13:08:05.282Z,99.90
2023-05-11T13:10:35.617Z,99.90
2023-05-11T13:13:10.876Z,99.90
2023-05-11T13:15:52.631Z,99.90
2023-05-11T13:18:20.833Z,99.90
2023-05-11T13:21:07.974Z,99.90
2023-05-11T13:23:37.570Z,99.90
2023-05-11T13:26:09.406Z,99.90
2023-05-11T13:28:41.873Z,99.90
2023-05-11T13:31:14.917Z,99.90
2023-05-11T13:33:42.662Z,99.90
2023-05-11T13:36:24.476Z,99.90
2023-05-11T13:38:56.623Z,99.90
2023-05-11T13:41:27.505Z,99.90
2023-05-11T13:44:03.656Z,99.90
2023-05-11T13:46:35.897Z,99.90
2023-05-11T13:49:13.904Z,99.90
2023-05-11T13:51:46.851Z,99.90
2023-05-11T13:54:23.656Z,99.90
2023-05-11T13:57:02.504Z,99.90
2023-05-11T13:59:44.915Z,99.90
2023-05-11T14:02:14.278Z,99.90
2023-05-11T14:04:45.314Z,99.90
2023-05-11T14:07:17.613Z,99.90
2023-05-11T14:09:51.507Z,99.90
2023-05-11T14:12:22.737Z,99.90
2023-05-11T14:14:52.883Z,99.90
2023-05-11T14:17:24.310Z,99.90
2023-05-11T14:19:57.083Z,99.90
2023-05-11T14:22:26.281Z,99.90
2023-05-11T14:24:55.223Z,99.90
2023-05-11T14:27:25.994Z,99.90
2023-05-11T14:29:55.334Z,99.90
2023-05-11T14:32:24.538Z,99.90
2023-05-11T14:34:53.837Z,99.90
2023-05-11T14:37:30.874Z,99.90
2023-05-11T14:40:12.694Z,99.90
2023-05-11T14:42:48.447Z,99.90
2023-05-11T14:45:20.361Z,99.90
2023-05-11T14:47:52.001Z,99.90
2023-05-11T14:50:22.724Z,99.90
2023-05-11T14:52:53.740Z,99.90
2023-05-11T14:55:30.105Z,99.90
2023-05-11T14:58:06.265Z,99.90
2023-05-11T15:00:41.966Z,99.90
2023-05-11T15:03:13.319Z,99.90
2023-05-11T15:05:44.370Z,99.90
2023-05-11T15:08:29.736Z,99.90
2023-05-11T15:11:04.890Z,99.90
2023-05-11T15:13:39.955Z,99.90
2023-05-11T15:16:17.826Z,99.90
2023-05-11T15:18:55.517Z,99.90
2023-05-11T15:21:35.100Z,99.90
2023-05-11T15:24:08.681Z,99.90
2023-05-11T15:26:39.597Z,99.90
2023-05-11T15:29:17.947Z,99.90
2023-05-11T15:31:55.958Z,99.90
2023-05-11T15:34:37.536Z,99.90
2023-05-11T15:37:15.596Z,99.90
2023-05-11T15:39:51.147Z,99.90
2023-05-11T15:42:20.546Z,99.90
2023-05-11T15:44:53.523Z,99.90
2023-05-11T15:47:25.357Z,99.90
2023-05-11T15:50:04.506Z,99.90
2023-05-11T15:52:39.942Z,99.90
2023-05-11T15:55:10.989Z,99.90
2023-05-11T15:57:47.075Z,99.90
2023-05-11T16:00:23.199Z,99.90
2023-05-11T16:02:53.525Z,99.90
2023-05-11T16:05:23.118Z,99.90
2023-05-11T16:07:51.581Z,99.90
2023-05-11T16:10:24.410Z,99.90
2023-05-11T16:12:58.807Z,99.90
2023-05-11T16:15:42.937Z,99.90
2023-05-11T16:18:17.675Z,99.90
2023-05-11T16:20:47.452Z,99.90
2023-05-11T16:23:17.495Z,99.90
2023-05-11T16:25:49.806Z,99.90
2023-05-11T16:28:21.850Z,99.90
2023-05-11T16:30:52.814Z,99.90
2023-05-11T16:33:31.308Z,99.90
2023-05-11T16:36:07.891Z,99.90
2023-05-11T16:38:41.693Z,99.90
2023-05-11T16:41:13.058Z,99.90
2023-05-11T16:43:48.053Z,99.90
2023-05-11T16:46:15.870Z,99.90
2023-05-11T16:48:48.235Z,99.90
2023-05-11T16:51:24.982Z,99.90
2023-05-11T16:53:54.186Z,99.90
2023-05-11T16:56:24.407Z,99.90
2023-05-11T16:58:57.743Z,99.90
2023-05-11T17:01:30.821Z,99.90
2023-05-11T17:03:59.954Z,99.90
2023-05-11T17:06:29.183Z,99.90
2023-05-11T17:09:00.143Z,99.90
2023-05-11T17:11:38.972Z,99.90
2023-05-11T17:14:09.226Z,99.90
2023-05-11T17:16:41.916Z,99.90
2023-05-11T17:19:24.430Z,99.90
2023-05-11T17:21:57.098Z,99.90
2023-05-11T17:24:37.105Z,99.90
2023-05-11T17:27:07.635Z,99.90
2023-05-11T17:29:44.266Z,99.90
2023-05-11T17:32:22.475Z,99.90
2023-05-11T17:34:53.762Z,99.90
2023-05-11T17:37:31.338Z,99.90
2023-05-11T17:40:03.671Z,99.90
2023-05-11T17:42:35.768Z,99.90
2023-05-11T17:45:16.194Z,99.90
2023-05-11T17:47:51.266Z,99.90
2023-05-11T17:50:25.449Z,99.90
2023-05-11T17:52:58.897Z,99.90
2023-05-11T17:55:36.070Z,99.90
2023-05-11T17:58:12.449Z,99.90
2023-05-11T18:00:48.698Z,99.90
2023-05-11T18:03:19.090Z,99.90
2023-05-11T18:05:53.609Z,99.90
2023-05-11T18:08:25.895Z,99.90
2023-05-11T18:10:58.515Z,99.90
2023-05-11T18:13:31.704Z,99.90
2023-05-11T18:16:01.447Z,99.90
2023-05-11T18:18:30.782Z,99.90
2023-05-11T18:21:10.921Z,99.90
2023-05-11T18:23:39.520Z,99.90
2023-05-11T18:26:19.062Z,99.90
2023-05-11T18:28:56.596Z,99.90
2023-05-11T18:31:26.202Z,99.90
2023-05-11T18:33:56.243Z,99.90
2023-05-11T18:36:28.441Z,99.90
2023-05-11T18:39:02.740Z,99.90
2023-05-11T18:41:33.934Z,99.90
2023-05-11T18:44:09.100Z,99.90
2023-05-11T18:49:25.317Z,99.90
2023-05-11T18:51:56.981Z,99.90
2023-05-11T18:54:34.590Z,99.90
2023-05-11T18:57:04.209Z,99.90
2023-05-11T18:59:44.053Z,99.90
2023-05-11T19:02:15.933Z,99.90
2023-05-11T19:04:57.743Z,99.90
2023-05-11T19:07:40.861Z,99.90
2023-05-11T19:10:18.576Z,99.90
2023-05-11T19:12:50.561Z,99.90
2023-05-11T19:15:32.343Z,99.90
2023-05-11T19:18:02.374Z,99.90
2023-05-11T19:20:42.132Z,99.90
2023-05-11T19:23:14.872Z,99.90
2023-05-11T19:25:45.928Z,99.90
2023-05-11T19:28:16.054Z,99.90
2023-05-11T19:30:50.119Z,99.90
2023-05-11T19:33:20.031Z,99.90
2023-05-11T19:38:45.147Z,99.90
2023-05-11T19:41:19.753Z,99.90
2023-05-11T19:43:49.003Z,99.90
2023-05-11T19:46:24.827Z,99.90
2023-05-11T19:48:54.971Z,99.90
2023-05-11T19:51:28.021Z,99.90
2023-05-11T19:54:02.410Z,99.90
2023-05-11T19:56:33.449Z,99.90
2023-05-11T19:59:05.286Z,99.90
2023-05-11T20:01:41.187Z,99.90
2023-05-11T20:04:16.331Z,99.90
2023-05-11T20:06:53.366Z,99.90
2023-05-11T20:09:32.357Z,99.90
2023-05-11T20:12:11.103Z,99.90
2023-05-11T20:14:43.781Z,99.90
2023-05-11T20:17:20.244Z,99.90
2023-05-11T20:19:51.105Z,99.90
2023-05-11T20:22:33.023Z,99.90
2023-05-11T20:25:18.364Z,99.90
2023-05-11T20:27:51.449Z,99.90
2023-05-11T20:30:20.463Z,99.90
2023-05-11T20:35:28.909Z,99.90
2023-05-11T20:37:59.911Z,99.90
2023-05-11T20:40:31.597Z,99.90
2023-05-11T20:43:04.319Z,99.90
2023-05-11T20:45:42.440Z,99.90
2023-05-11T20:48:11.120Z,99.90
2023-05-11T20:50:48.745Z,99.90
2023-05-11T20:53:20.539Z,99.90
2023-05-11T20:56:04.732Z,99.90
2023-05-11T20:58:35.893Z,99.90
2023-05-11T21:01:04.239Z,99.90
2023-05-11T21:03:38.548Z,99.90
2023-05-11T21:06:09.024Z,99.90
2023-05-11T21:08:40.232Z,99.90
2023-05-11T21:11:14.449Z,99.90
2023-05-11T21:13:44.240Z,99.90
2023-05-11T21:16:23.305Z,99.90
2023-05-11T21:18:52.915Z,99.90
2023-05-11T21:21:23.167Z,99.90
2023-05-11T21:23:56.082Z,99.90
2023-05-11T21:26:31.002Z,99.90
2023-05-11T21:29:01.047Z,99.90
2023-05-11T21:31:39.974Z,99.90
2023-05-11T21:34:14.358Z,99.90
2023-05-11T21:36:48.463Z,99.90
2023-05-11T21:39:19.163Z,99.90
2023-05-11T21:41:50.655Z,99.90
2023-05-11T21:44:29.908Z,99.90
2023-05-11T21:47:00.597Z,99.90
2023-05-11T21:49:31.148Z,99.90
2023-05-11T21:52:00.754Z,99.90
2023-05-11T21:54:30.560Z,99.90
2023-05-11T21:57:02.497Z,99.90
2023-05-11T21:59:32.305Z,99.90
2023-05-11T22:02:05.492Z,99.90
2023-05-11T22:04:42.390Z,99.90
2023-05-11T22:07:12.967Z,99.90
2023-05-11T22:09:43.552Z,99.90
2023-05-11T22:12:12.497Z,99.90
2023-05-11T22:14:42.862Z,99.90
2023-05-11T22:17:11.605Z,99.90
2023-05-11T22:19:50.839Z,99.90
2023-05-11T22:22:26.492Z,99.90
2023-05-11T22:25:02.203Z,99.90
2023-05-11T22:27:33.134Z,99.90
2023-05-11T22:30:13.547Z,99.90
2023-05-11T22:32:45.412Z,99.90
2023-05-11T22:35:27.070Z,99.90
2023-05-11T22:38:02.865Z,99.90
2023-05-11T22:40:30.190Z,99.90
2023-05-11T22:43:15.204Z,99.90
2023-05-11T22:45:45.957Z,99.90
2023-05-11T22:48:26.874Z,99.90
2023-05-11T22:50:59.363Z,99.90
2023-05-11T22:53:35.377Z,99.90
2023-05-11T22:56:10.396Z,99.90
2023-05-11T22:58:43.235Z,99.90
2023-05-11T23:01:17.533Z,99.90
2023-05-11T23:03:57.282Z,99.90
2023-05-11T23:06:25.598Z,99.90
2023-05-11T23:09:03.453Z,99.90
2023-05-11T23:11:43.679Z,99.90
2023-05-11T23:14:20.454Z,99.90
2023-05-11T23:16:50.735Z,99.90
2023-05-11T23:19:21.703Z,99.90
2023-05-11T23:21:52.692Z,99.90
2023-05-11T23:24:24.948Z,99.90
2023-05-11T23:27:06.427Z,99.90
2023-05-11T23:29:38.367Z,99.90
2023-05-11T23:32:09.801Z,99.90
2023-05-11T23:34:41.285Z,99.90
2023-05-11T23:37:23.334Z,99.90
2023-05-11T23:39:58.622Z,99.90
2023-05-11T23:42:40.182Z,99.90
2023-05-11T23:45:10.399Z,99.90
2023-05-11T23:47:47.003Z,99.90
2023-05-11T23:50:16.647Z,99.90
2023-05-11T23:52:47.268Z,99.90
2023-05-11T23:55:20.171Z,99.90
2023-05-11T23:57:51.246Z,99.90
